sensor_id;sensor_type;location;lat;lon;timestamp;pressure;altitude;pressure_sealevel;temperature;humidity
14242;BME280;7205;50.864;12.766;2023-04-21T00:01:57;97685.91;;;7.77;100.00
14242;BME280;7205;50.864;12.766;2023-04-21T00:04:25;97685.91;;;7.77;100.00
14242;BME280;7205;50.864;12.766;2023-04-21T00:06:52;97680.53;;;7.79;100.00
14242;BME280;7205;50.864;12.766;2023-04-21T00:09:19;97679.69;;;7.78;100.00
14242;BME280;7205;50.864;12.766;2023-04-21T00:11:46;97680.53;;;7.79;100.00
14242;BME280;7205;50.864;12.766;2023-04-21T00:14:13;97672.47;;;7.80;100.00
14242;BME280;7205;50.864;12.766;2023-04-21T00:16:40;97674.13;;;7.81;100.00
14242;BME280;7205;50.864;12.766;2023-04-21T00:19:08;97673.44;;;7.79;100.00
14242;BME280;7205;50.864;12.766;2023-04-21T00:21:35;97670.81;;;7.79;100.00
14242;BME280;7205;50.864;12.766;2023-04-21T00:24:02;97670.13;;;7.77;100.00
14242;BME280;7205;50.864;12.766;2023-04-21T00:26:28;97664.88;;;7.77;100.00
14242;BME280;7205;50.864;12.766;2023-04-21T00:28:56;97663.56;;;7.73;100.00
14242;BME280;7205;50.864;12.766;2023-04-21T00:31:22;97664.84;;;7.69;100.00
14242;BME280;7205;50.864;12.766;2023-04-21T00:33:49;97668.63;;;7.67;100.00
14242;BME280;7205;50.864;12.766;2023-04-21T00:36:18;97663.81;;;7.62;100.00
14242;BME280;7205;50.864;12.766;2023-04-21T00:38:46;97661.34;;;7.60;100.00
14242;BME280;7205;50.864;12.766;2023-04-21T00:41:13;97660.84;;;7.57;100.00
14242;BME280;7205;50.864;12.766;2023-04-21T00:44:01;97661.16;;;7.54;100.00
14242;BME280;7205;50.864;12.766;2023-04-21T00:46:30;97660.63;;;7.50;100.00
14242;BME280;7205;50.864;12.766;2023-04-21T00:48:57;97653.91;;;7.48;100.00
14242;BME280;7205;50.864;12.766;2023-04-21T00:51:27;97651.59;;;7.45;100.00
14242;BME280;7205;50.864;12.766;2023-04-21T00:53:56;97649.25;;;7.42;100.00
14242;BME280;7205;50.864;12.766;2023-04-21T00:56:23;97651.25;;;7.40;100.00
14242;BME280;7205;50.864;12.766;2023-04-21T00:58:51;97649.72;;;7.37;100.00
14242;BME280;7205;50.864;12.766;2023-04-21T01:01:19;97644.78;;;7.34;100.00
14242;BME280;7205;50.864;12.766;2023-04-21T01:03:47;97646.91;;;7.31;100.00
14242;BME280;7205;50.864;12.766;2023-04-21T01:06:14;97640.00;;;7.30;100.00
14242;BME280;7205;50.864;12.766;2023-04-21T01:08:45;97640.81;;;7.30;100.00
14242;BME280;7205;50.864;12.766;2023-04-21T01:11:14;97638.19;;;7.30;100.00
14242;BME280;7205;50.864;12.766;2023-04-21T01:13:41;97631.16;;;7.31;100.00
14242;BME280;7205;50.864;12.766;2023-04-21T01:16:08;97632.94;;;7.30;100.00
14242;BME280;7205;50.864;12.766;2023-04-21T01:18:34;97634.75;;;7.30;100.00
14242;BME280;7205;50.864;12.766;2023-04-21T01:21:02;97636.56;;;7.29;100.00
14242;BME280;7205;50.864;12.766;2023-04-21T01:23:31;97638.34;;;7.29;100.00
14242;BME280;7205;50.864;12.766;2023-04-21T01:25:58;97636.72;;;7.28;100.00
14242;BME280;7205;50.864;12.766;2023-04-21T01:28:25;97644.75;;;7.26;100.00
14242;BME280;7205;50.864;12.766;2023-04-21T01:30:52;97639.50;;;7.26;100.00
14242;BME280;7205;50.864;12.766;2023-04-21T01:33:20;97638.81;;;7.24;100.00
14242;BME280;7205;50.864;12.766;2023-04-21T01:35:48;97647.66;;;7.23;100.00
14242;BME280;7205;50.864;12.766;2023-04-21T01:38:18;97645.19;;;7.22;100.00
14242;BME280;7205;50.864;12.766;2023-04-21T01:40:49;97644.38;;;7.21;100.00
14242;BME280;7205;50.864;12.766;2023-04-21T01:43:19;97646.19;;;7.21;100.00
14242;BME280;7205;50.864;12.766;2023-04-21T01:45:46;97641.91;;;7.20;100.00
14242;BME280;7205;50.864;12.766;2023-04-21T01:48:13;97648.13;;;7.19;100.00
14242;BME280;7205;50.864;12.766;2023-04-21T01:50:40;97641.25;;;7.18;100.00
14242;BME280;7205;50.864;12.766;2023-04-21T01:53:09;97644.81;;;7.17;100.00
14242;BME280;7205;50.864;12.766;2023-04-21T01:55:36;97642.34;;;7.15;100.00
14242;BME280;7205;50.864;12.766;2023-04-21T01:58:08;97643.34;;;7.14;100.00
14242;BME280;7205;50.864;12.766;2023-04-21T02:00:34;97638.25;;;7.13;100.00
14242;BME280;7205;50.864;12.766;2023-04-21T02:03:03;97633.31;;;7.10;100.00
14242;BME280;7205;50.864;12.766;2023-04-21T02:05:30;97642.81;;;7.11;100.00
14242;BME280;7205;50.864;12.766;2023-04-21T02:07:57;97636.75;;;7.10;100.00
14242;BME280;7205;50.864;12.766;2023-04-21T02:10:24;97639.22;;;7.12;100.00
14242;BME280;7205;50.864;12.766;2023-04-21T02:12:51;97640.88;;;7.13;100.00
14242;BME280;7205;50.864;12.766;2023-04-21T02:15:19;97635.47;;;7.14;100.00
14242;BME280;7205;50.864;12.766;2023-04-21T02:17:45;97630.06;;;7.16;100.00
14242;BME280;7205;50.864;12.766;2023-04-21T02:20:12;97632.38;;;7.19;100.00
14242;BME280;7205;50.864;12.766;2023-04-21T02:22:39;97626.97;;;7.20;100.00
14242;BME280;7205;50.864;12.766;2023-04-21T02:25:06;97631.25;;;7.21;100.00
14242;BME280;7205;50.864;12.766;2023-04-21T02:27:33;97628.63;;;7.21;100.00
14242;BME280;7205;50.864;12.766;2023-04-21T02:30:00;97629.28;;;7.23;100.00
14242;BME280;7205;50.864;12.766;2023-04-21T02:32:28;97628.31;;;7.24;100.00
14242;BME280;7205;50.864;12.766;2023-04-21T02:34:55;97630.09;;;7.24;100.00
14242;BME280;7205;50.864;12.766;2023-04-21T02:37:22;97631.09;;;7.23;100.00
14242;BME280;7205;50.864;12.766;2023-04-21T02:39:52;97632.06;;;7.22;100.00
14242;BME280;7205;50.864;12.766;2023-04-21T02:42:18;97633.06;;;7.21;100.00
14242;BME280;7205;50.864;12.766;2023-04-21T02:44:46;97635.16;;;7.17;100.00
14242;BME280;7205;50.864;12.766;2023-04-21T02:47:14;97634.31;;;7.17;100.00
14242;BME280;7205;50.864;12.766;2023-04-21T02:49:43;97635.16;;;7.17;100.00
14242;BME280;7205;50.864;12.766;2023-04-21T02:52:11;97634.47;;;7.15;100.00
14242;BME280;7205;50.864;12.766;2023-04-21T02:54:38;97640.72;;;7.14;100.00
14242;BME280;7205;50.864;12.766;2023-04-21T02:57:04;97633.81;;;7.13;100.00
14242;BME280;7205;50.864;12.766;2023-04-21T02:59:32;97640.03;;;7.12;100.00
14242;BME280;7205;50.864;12.766;2023-04-21T03:01:59;97642.81;;;7.11;100.00
14242;BME280;7205;50.864;12.766;2023-04-21T03:04:25;97637.56;;;7.11;100.00
14242;BME280;7205;50.864;12.766;2023-04-21T03:06:54;97639.38;;;7.10;100.00
14242;BME280;7205;50.864;12.766;2023-04-21T03:09:21;97637.88;;;7.08;100.00
14242;BME280;7205;50.864;12.766;2023-04-21T03:11:47;97635.41;;;7.06;100.00
14242;BME280;7205;50.864;12.766;2023-04-21T03:14:14;97634.75;;;7.04;100.00
14242;BME280;7205;50.864;12.766;2023-04-21T03:16:41;97645.09;;;7.06;100.00
14242;BME280;7205;50.864;12.766;2023-04-21T03:19:08;97647.72;;;7.06;100.00
14242;BME280;7205;50.864;12.766;2023-04-21T03:21:37;97644.41;;;7.04;100.00
14242;BME280;7205;50.864;12.766;2023-04-21T03:24:06;97642.63;;;7.04;100.00
14242;BME280;7205;50.864;12.766;2023-04-21T03:26:33;97634.75;;;7.04;100.00
14242;BME280;7205;50.864;12.766;2023-04-21T03:29:00;97633.75;;;7.05;100.00
14242;BME280;7205;50.864;12.766;2023-04-21T03:31:27;97645.91;;;7.06;100.00
14242;BME280;7205;50.864;12.766;2023-04-21T03:33:54;97633.59;;;7.07;100.00
14242;BME280;7205;50.864;12.766;2023-04-21T03:36:21;97626.56;;;7.07;100.00
14242;BME280;7205;50.864;12.766;2023-04-21T03:38:48;97636.75;;;7.10;100.00
14242;BME280;7205;50.864;12.766;2023-04-21T03:41:17;97631.34;;;7.12;100.00
14242;BME280;7205;50.864;12.766;2023-04-21T03:43:44;97628.72;;;7.12;100.00
14242;BME280;7205;50.864;12.766;2023-04-21T03:46:17;97630.38;;;7.13;100.00
14242;BME280;7205;50.864;12.766;2023-04-21T03:48:44;97634.63;;;7.14;100.00
14242;BME280;7205;50.864;12.766;2023-04-21T03:51:11;97630.22;;;7.14;100.00
14242;BME280;7205;50.864;12.766;2023-04-21T03:53:38;97629.22;;;7.15;100.00
14242;BME280;7205;50.864;12.766;2023-04-21T03:56:05;97627.44;;;7.16;100.00
14242;BME280;7205;50.864;12.766;2023-04-21T03:58:34;97631.53;;;7.18;100.00
14242;BME280;7205;50.864;12.766;2023-04-21T04:01:03;97623.53;;;7.20;100.00
14242;BME280;7205;50.864;12.766;2023-04-21T04:03:30;97624.19;;;7.22;100.00
14242;BME280;7205;50.864;12.766;2023-04-21T04:05:57;97633.56;;;7.24;100.00
14242;BME280;7205;50.864;12.766;2023-04-21T04:08:24;97629.94;;;7.25;100.00
14242;BME280;7205;50.864;12.766;2023-04-21T04:10:51;97627.00;;;7.28;100.00
14242;BME280;7205;50.864;12.766;2023-04-21T04:13:17;97635.72;;;7.29;100.00
14242;BME280;7205;50.864;12.766;2023-04-21T04:15:47;97636.41;;;7.31;100.00
14242;BME280;7205;50.864;12.766;2023-04-21T04:18:14;97638.88;;;7.32;100.00
14242;BME280;7205;50.864;12.766;2023-04-21T04:20:40;97636.09;;;7.34;100.00
14242;BME280;7205;50.864;12.766;2023-04-21T04:23:07;97632.34;;;7.36;100.00
14242;BME280;7205;50.864;12.766;2023-04-21T04:25:34;97627.88;;;7.37;100.00
14242;BME280;7205;50.864;12.766;2023-04-21T04:28:01;97628.56;;;7.39;100.00
14242;BME280;7205;50.864;12.766;2023-04-21T04:30:29;97632.84;;;7.40;100.00
14242;BME280;7205;50.864;12.766;2023-04-21T04:32:58;97623.97;;;7.41;100.00
14242;BME280;7205;50.864;12.766;2023-04-21T04:35:25;97629.06;;;7.42;100.00
14242;BME280;7205;50.864;12.766;2023-04-21T04:37:52;97637.47;;;7.46;100.00
14242;BME280;7205;50.864;12.766;2023-04-21T04:40:21;97631.06;;;7.48;100.00
14242;BME280;7205;50.864;12.766;2023-04-21T04:42:48;97632.56;;;7.51;100.00
14242;BME280;7205;50.864;12.766;2023-04-21T04:45:15;97640.97;;;7.54;100.00
14242;BME280;7205;50.864;12.766;2023-04-21T04:47:46;97639.81;;;7.57;100.00
14242;BME280;7205;50.864;12.766;2023-04-21T04:50:15;97641.31;;;7.59;100.00
14242;BME280;7205;50.864;12.766;2023-04-21T04:52:41;97638.22;;;7.64;100.00
14242;BME280;7205;50.864;12.766;2023-04-21T04:55:11;97640.38;;;7.68;100.00
14242;BME280;7205;50.864;12.766;2023-04-21T04:57:38;97640.06;;;7.72;100.00
14242;BME280;7205;50.864;12.766;2023-04-21T05:00:06;97632.69;;;7.75;100.00
14242;BME280;7205;50.864;12.766;2023-04-21T05:02:36;97639.13;;;7.81;100.00
14242;BME280;7205;50.864;12.766;2023-04-21T05:05:03;97643.09;;;7.85;100.00
14242;BME280;7205;50.864;12.766;2023-04-21T05:07:32;97649.53;;;7.90;100.00
14242;BME280;7205;50.864;12.766;2023-04-21T05:09:59;97647.25;;;7.95;100.00
14242;BME280;7205;50.864;12.766;2023-04-21T05:12:26;97647.44;;;8.02;100.00
14242;BME280;7205;50.864;12.766;2023-04-21T05:14:53;97645.16;;;8.07;100.00
14242;BME280;7205;50.864;12.766;2023-04-21T05:17:20;97655.53;;;8.16;100.00
14242;BME280;7205;50.864;12.766;2023-04-21T05:19:47;97644.69;;;8.19;100.00
14242;BME280;7205;50.864;12.766;2023-04-21T05:22:13;97649.97;;;8.27;100.00
14242;BME280;7205;50.864;12.766;2023-04-21T05:24:42;97648.19;;;8.36;100.00
14242;BME280;7205;50.864;12.766;2023-04-21T05:27:08;97656.28;;;8.42;100.00
14242;BME280;7205;50.864;12.766;2023-04-21T05:29:35;97659.91;;;8.49;100.00
14242;BME280;7205;50.864;12.766;2023-04-21T05:32:02;97653.03;;;8.56;100.00
14242;BME280;7205;50.864;12.766;2023-04-21T05:34:30;97663.38;;;8.66;100.00
14242;BME280;7205;50.864;12.766;2023-04-21T05:36:57;97655.66;;;8.72;100.00
14242;BME280;7205;50.864;12.766;2023-04-21T05:39:24;97662.41;;;8.83;100.00
14242;BME280;7205;50.864;12.766;2023-04-21T05:41:53;97664.75;;;8.94;100.00
14242;BME280;7205;50.864;12.766;2023-04-21T05:44:20;97663.75;;;9.03;100.00
14242;BME280;7205;50.864;12.766;2023-04-21T05:46:47;97661.75;;;9.13;100.00
14242;BME280;7205;50.864;12.766;2023-04-21T05:49:14;97651.88;;;9.23;100.00
14242;BME280;7205;50.864;12.766;2023-04-21T05:51:41;97655.00;;;9.35;100.00
14242;BME280;7205;50.864;12.766;2023-04-21T05:54:07;97654.66;;;9.46;100.00
14242;BME280;7205;50.864;12.766;2023-04-21T05:56:34;97664.00;;;9.56;100.00
14242;BME280;7205;50.864;12.766;2023-04-21T05:59:02;97653.78;;;9.69;100.00
14242;BME280;7205;50.864;12.766;2023-04-21T06:01:31;97647.97;;;9.82;100.00
14242;BME280;7205;50.864;12.766;2023-04-21T06:03:58;97649.06;;;9.95;100.00
14242;BME280;7205;50.864;12.766;2023-04-21T06:06:25;97645.06;;;10.07;100.00
14242;BME280;7205;50.864;12.766;2023-04-21T06:08:52;97648.19;;;10.19;100.00
14242;BME280;7205;50.864;12.766;2023-04-21T06:11:19;97642.50;;;10.30;100.00
14242;BME280;7205;50.864;12.766;2023-04-21T06:13:46;97638.84;;;10.39;100.00
14242;BME280;7205;50.864;12.766;2023-04-21T06:16:15;97640.44;;;10.48;100.00
14242;BME280;7205;50.864;12.766;2023-04-21T06:18:42;97631.44;;;10.57;99.28
14242;BME280;7205;50.864;12.766;2023-04-21T06:21:09;97634.88;;;10.66;98.45
14242;BME280;7205;50.864;12.766;2023-04-21T06:23:36;97631.97;;;10.75;97.92
14242;BME280;7205;50.864;12.766;2023-04-21T06:26:04;97629.31;;;10.83;97.42
14242;BME280;7205;50.864;12.766;2023-04-21T06:28:34;97628.22;;;10.92;96.15
14242;BME280;7205;50.864;12.766;2023-04-21T06:31:03;97630.59;;;11.02;95.37
14242;BME280;7205;50.864;12.766;2023-04-21T06:33:31;97611.41;;;11.08;94.02
14242;BME280;7205;50.864;12.766;2023-04-21T06:35:58;97616.44;;;11.17;92.98
14242;BME280;7205;50.864;12.766;2023-04-21T06:38:25;97616.53;;;11.24;92.91
14242;BME280;7205;50.864;12.766;2023-04-21T06:40:51;97607.91;;;11.30;91.52
14242;BME280;7205;50.864;12.766;2023-04-21T06:43:19;97613.09;;;11.38;90.29
14242;BME280;7205;50.864;12.766;2023-04-21T06:45:45;97612.19;;;11.46;89.86
14242;BME280;7205;50.864;12.766;2023-04-21T06:48:12;97600.72;;;11.53;88.76
14242;BME280;7205;50.864;12.766;2023-04-21T06:50:40;97599.78;;;11.61;88.29
14242;BME280;7205;50.864;12.766;2023-04-21T06:53:09;97607.69;;;11.69;87.02
14242;BME280;7205;50.864;12.766;2023-04-21T06:55:35;97597.81;;;11.77;86.52
14242;BME280;7205;50.864;12.766;2023-04-21T06:58:02;97595.09;;;11.85;86.45
14242;BME280;7205;50.864;12.766;2023-04-21T07:00:29;97596.81;;;11.93;85.85
14242;BME280;7205;50.864;12.766;2023-04-21T07:02:56;97594.88;;;12.01;84.84
14242;BME280;7205;50.864;12.766;2023-04-21T07:05:23;97588.47;;;12.10;83.64
14242;BME280;7205;50.864;12.766;2023-04-21T07:07:51;97586.38;;;12.20;82.18
14242;BME280;7205;50.864;12.766;2023-04-21T07:10:20;97575.47;;;12.30;80.35
14242;BME280;7205;50.864;12.766;2023-04-21T07:12:47;97582.91;;;12.41;78.85
14242;BME280;7205;50.864;12.766;2023-04-21T07:15:14;97579.78;;;12.52;77.17
14242;BME280;7205;50.864;12.766;2023-04-21T07:17:41;97575.78;;;12.62;75.90
14242;BME280;7205;50.864;12.766;2023-04-21T07:20:09;97579.97;;;12.72;74.47
14242;BME280;7205;50.864;12.766;2023-04-21T07:22:35;97587.38;;;12.83;73.26
14242;BME280;7205;50.864;12.766;2023-04-21T07:25:04;97574.66;;;12.93;72.87
14242;BME280;7205;50.864;12.766;2023-04-21T07:27:31;97582.31;;;13.02;72.19
14242;BME280;7205;50.864;12.766;2023-04-21T07:29:59;97580.53;;;13.09;71.49
14242;BME280;7205;50.864;12.766;2023-04-21T07:32:25;97574.06;;;13.18;70.62
14242;BME280;7205;50.864;12.766;2023-04-21T07:34:52;97578.22;;;13.27;70.00
14242;BME280;7205;50.864;12.766;2023-04-21T07:37:19;97570.09;;;13.35;69.26
14242;BME280;7205;50.864;12.766;2023-04-21T07:39:46;97564.63;;;13.43;68.57
14242;BME280;7205;50.864;12.766;2023-04-21T07:42:14;97573.47;;;13.50;67.52
14242;BME280;7205;50.864;12.766;2023-04-21T07:44:41;97574.53;;;13.56;67.01
14242;BME280;7205;50.864;12.766;2023-04-21T07:47:08;97556.81;;;13.63;66.37
14242;BME280;7205;50.864;12.766;2023-04-21T07:49:37;97562.94;;;13.70;65.69
14242;BME280;7205;50.864;12.766;2023-04-21T07:52:04;97567.50;;;13.76;64.90
14242;BME280;7205;50.864;12.766;2023-04-21T07:54:34;97560.97;;;13.85;64.72
14242;BME280;7205;50.864;12.766;2023-04-21T07:57:00;97561.00;;;13.92;63.84
14242;BME280;7205;50.864;12.766;2023-04-21T07:59:29;97571.47;;;14.00;63.94
14242;BME280;7205;50.864;12.766;2023-04-21T08:01:56;97573.13;;;14.07;63.60
14242;BME280;7205;50.864;12.766;2023-04-21T08:04:30;97560.69;;;14.14;63.31
14242;BME280;7205;50.864;12.766;2023-04-21T08:06:57;97559.91;;;14.20;62.81
14242;BME280;7205;50.864;12.766;2023-04-21T08:09:27;97559.94;;;14.27;62.41
14242;BME280;7205;50.864;12.766;2023-04-21T08:11:54;97561.81;;;14.33;62.09
14242;BME280;7205;50.864;12.766;2023-04-21T08:14:22;97561.22;;;14.37;61.92
14242;BME280;7205;50.864;12.766;2023-04-21T08:16:52;97564.50;;;14.46;61.92
14242;BME280;7205;50.864;12.766;2023-04-21T08:19:28;97560.22;;;14.51;61.17
14242;BME280;7205;50.864;12.766;2023-04-21T08:21:55;97563.31;;;14.55;60.10
14242;BME280;7205;50.864;12.766;2023-04-21T08:24:22;97561.66;;;14.60;60.23
14242;BME280;7205;50.864;12.766;2023-04-21T08:26:51;97555.56;;;14.66;59.93
14242;BME280;7205;50.864;12.766;2023-04-21T08:29:17;97570.88;;;14.71;59.67
14242;BME280;7205;50.864;12.766;2023-04-21T08:31:44;97565.56;;;14.77;59.63
14242;BME280;7205;50.864;12.766;2023-04-21T08:34:13;97555.97;;;14.83;58.79
14242;BME280;7205;50.864;12.766;2023-04-21T08:36:39;97554.34;;;14.88;59.07
14242;BME280;7205;50.864;12.766;2023-04-21T08:39:07;97555.97;;;14.96;58.81
14242;BME280;7205;50.864;12.766;2023-04-21T08:41:37;97564.16;;;15.01;58.63
14242;BME280;7205;50.864;12.766;2023-04-21T08:44:04;97564.97;;;15.08;58.52
14242;BME280;7205;50.864;12.766;2023-04-21T08:46:31;97557.19;;;15.13;58.28
14242;BME280;7205;50.864;12.766;2023-04-21T08:48:59;97564.13;;;15.21;58.12
14242;BME280;7205;50.864;12.766;2023-04-21T08:51:28;97556.56;;;15.24;57.80
14242;BME280;7205;50.864;12.766;2023-04-21T08:53:56;97532.19;;;15.27;57.20
14242;BME280;7205;50.864;12.766;2023-04-21T08:56:23;97551.84;;;15.33;56.96
14242;BME280;7205;50.864;12.766;2023-04-21T08:58:50;97561.69;;;15.39;56.69
14242;BME280;7205;50.864;12.766;2023-04-21T09:01:17;97560.88;;;15.45;56.77
14242;BME280;7205;50.864;12.766;2023-04-21T09:03:43;97562.91;;;15.49;56.69
14242;BME280;7205;50.864;12.766;2023-04-21T09:06:11;97557.78;;;15.54;56.43
14242;BME280;7205;50.864;12.766;2023-04-21T09:08:41;97556.34;;;15.58;56.12
14242;BME280;7205;50.864;12.766;2023-04-21T09:11:12;97557.38;;;15.64;56.03
14242;BME280;7205;50.864;12.766;2023-04-21T09:13:41;97552.22;;;15.69;55.72
14242;BME280;7205;50.864;12.766;2023-04-21T09:16:14;97559.16;;;15.76;55.96
14242;BME280;7205;50.864;12.766;2023-04-21T09:18:43;97555.47;;;15.84;55.90
14242;BME280;7205;50.864;12.766;2023-04-21T09:21:11;97546.41;;;15.91;56.19
14242;BME280;7205;50.864;12.766;2023-04-21T09:23:41;97551.50;;;15.99;56.22
14242;BME280;7205;50.864;12.766;2023-04-21T09:26:08;97556.19;;;16.04;55.37
14242;BME280;7205;50.864;12.766;2023-04-21T09:28:36;97558.41;;;16.13;55.37
14242;BME280;7205;50.864;12.766;2023-04-21T09:31:12;97553.03;;;16.20;54.73
14242;BME280;7205;50.864;12.766;2023-04-21T09:33:44;97547.91;;;16.25;53.59
14242;BME280;7205;50.864;12.766;2023-04-21T09:36:17;97546.44;;;16.29;53.91
14242;BME280;7205;50.864;12.766;2023-04-21T09:38:49;97556.03;;;16.37;53.64
14242;BME280;7205;50.864;12.766;2023-04-21T09:41:16;97548.44;;;16.40;53.15
14242;BME280;7205;50.864;12.766;2023-04-21T09:43:43;97551.69;;;16.42;52.62
14242;BME280;7205;50.864;12.766;2023-04-21T09:46:11;97543.72;;;16.42;52.21
14242;BME280;7205;50.864;12.766;2023-04-21T09:48:42;97546.75;;;16.52;52.60
14242;BME280;7205;50.864;12.766;2023-04-21T09:51:10;97551.22;;;16.58;52.63
14242;BME280;7205;50.864;12.766;2023-04-21T09:53:41;97544.38;;;16.69;52.17
14242;BME280;7205;50.864;12.766;2023-04-21T09:56:12;97541.22;;;16.78;51.75
14242;BME280;7205;50.864;12.766;2023-04-21T09:58:45;97541.13;;;16.91;51.81
14242;BME280;7205;50.864;12.766;2023-04-21T10:01:14;97546.16;;;17.06;51.46
14242;BME280;7205;50.864;12.766;2023-04-21T10:03:42;97537.59;;;17.22;51.40
14242;BME280;7205;50.864;12.766;2023-04-21T10:06:10;97543.56;;;17.42;50.53
14242;BME280;7205;50.864;12.766;2023-04-21T10:08:37;97535.38;;;17.62;49.84
14242;BME280;7205;50.864;12.766;2023-04-21T10:11:05;97530.28;;;17.78;49.48
14242;BME280;7205;50.864;12.766;2023-04-21T10:13:34;97519.56;;;17.96;49.45
14242;BME280;7205;50.864;12.766;2023-04-21T10:16:03;97534.84;;;18.07;48.08
14242;BME280;7205;50.864;12.766;2023-04-21T10:18:36;97534.75;;;18.14;47.79
14242;BME280;7205;50.864;12.766;2023-04-21T10:21:05;97523.97;;;18.20;48.13
14242;BME280;7205;50.864;12.766;2023-04-21T10:23:36;97506.81;;;18.28;47.37
14242;BME280;7205;50.864;12.766;2023-04-21T10:26:06;97526.03;;;18.36;46.71
14242;BME280;7205;50.864;12.766;2023-04-21T10:28:46;97519.94;;;18.47;45.99
14242;BME280;7205;50.864;12.766;2023-04-21T10:31:19;97523.31;;;18.54;44.98
14242;BME280;7205;50.864;12.766;2023-04-21T10:34:12;97528.31;;;18.51;44.80
14242;BME280;7205;50.864;12.766;2023-04-21T10:36:48;97518.91;;;18.48;44.81
14242;BME280;7205;50.864;12.766;2023-04-21T10:39:26;97510.41;;;18.51;45.02
14242;BME280;7205;50.864;12.766;2023-04-21T10:41:54;97510.19;;;18.53;44.70
14242;BME280;7205;50.864;12.766;2023-04-21T10:44:23;97515.75;;;18.51;44.36
14242;BME280;7205;50.864;12.766;2023-04-21T10:46:52;97518.91;;;18.48;44.85
14242;BME280;7205;50.864;12.766;2023-04-21T10:49:26;97519.34;;;18.45;44.33
14242;BME280;7205;50.864;12.766;2023-04-21T10:52:05;97521.13;;;18.51;45.01
14242;BME280;7205;50.864;12.766;2023-04-21T10:54:36;97509.75;;;18.67;45.15
14242;BME280;7205;50.864;12.766;2023-04-21T10:57:07;97500.94;;;18.79;44.90
14242;BME280;7205;50.864;12.766;2023-04-21T10:59:37;97505.38;;;18.85;44.16
14242;BME280;7205;50.864;12.766;2023-04-21T11:02:05;97509.34;;;18.94;43.82
14242;BME280;7205;50.864;12.766;2023-04-21T11:04:35;97519.34;;;18.98;43.71
14242;BME280;7205;50.864;12.766;2023-04-21T11:07:05;97513.88;;;19.05;43.96
14242;BME280;7205;50.864;12.766;2023-04-21T11:09:33;97511.31;;;19.10;43.84
14242;BME280;7205;50.864;12.766;2023-04-21T11:12:01;97502.47;;;19.09;43.39
14242;BME280;7205;50.864;12.766;2023-04-21T11:14:29;97500.84;;;19.08;43.09
14242;BME280;7205;50.864;12.766;2023-04-21T11:16:58;97512.94;;;19.11;43.37
14242;BME280;7205;50.864;12.766;2023-04-21T11:19:25;97499.34;;;19.12;43.06
14242;BME280;7205;50.864;12.766;2023-04-21T11:21:53;97506.09;;;19.15;43.03
14242;BME280;7205;50.864;12.766;2023-04-21T11:24:22;97493.66;;;19.09;42.84
14242;BME280;7205;50.864;12.766;2023-04-21T11:26:50;97496.44;;;19.02;43.21
14242;BME280;7205;50.864;12.766;2023-04-21T11:29:20;97495.59;;;18.90;42.93
14242;BME280;7205;50.864;12.766;2023-04-21T11:31:50;97484.53;;;18.75;42.35
14242;BME280;7205;50.864;12.766;2023-04-21T11:34:20;97486.84;;;18.60;42.34
14242;BME280;7205;50.864;12.766;2023-04-21T11:36:49;97486.94;;;18.53;42.99
14242;BME280;7205;50.864;12.766;2023-04-21T11:39:16;97495.97;;;18.52;43.31
14242;BME280;7205;50.864;12.766;2023-04-21T11:41:46;97493.06;;;18.54;43.44
14242;BME280;7205;50.864;12.766;2023-04-21T11:44:29;97485.66;;;18.56;43.61
14242;BME280;7205;50.864;12.766;2023-04-21T11:46:56;97470.19;;;18.58;43.81
14242;BME280;7205;50.864;12.766;2023-04-21T11:49:27;97476.13;;;18.60;43.99
14242;BME280;7205;50.864;12.766;2023-04-21T11:51:54;97477.88;;;18.66;44.10
14242;BME280;7205;50.864;12.766;2023-04-21T11:54:21;97474.97;;;18.67;43.16
14242;BME280;7205;50.864;12.766;2023-04-21T11:56:53;97475.56;;;18.69;43.19
14242;BME280;7205;50.864;12.766;2023-04-21T11:59:21;97471.94;;;18.75;43.09
14242;BME280;7205;50.864;12.766;2023-04-21T12:01:51;97470.56;;;18.85;43.09
14242;BME280;7205;50.864;12.766;2023-04-21T12:04:19;97456.84;;;18.93;41.94
14242;BME280;7205;50.864;12.766;2023-04-21T12:06:56;97469.09;;;19.00;42.20
14242;BME280;7205;50.864;12.766;2023-04-21T12:09:24;97471.75;;;19.12;42.41
14242;BME280;7205;50.864;12.766;2023-04-21T12:11:54;97469.78;;;19.19;42.18
14242;BME280;7205;50.864;12.766;2023-04-21T12:14:23;97468.25;;;19.23;41.98
14242;BME280;7205;50.864;12.766;2023-04-21T12:16:53;97460.56;;;19.26;42.27
14242;BME280;7205;50.864;12.766;2023-04-21T12:19:24;97469.81;;;19.30;41.84
14242;BME280;7205;50.864;12.766;2023-04-21T12:22:05;97456.88;;;19.39;41.79
14242;BME280;7205;50.864;12.766;2023-04-21T12:24:32;97450.69;;;19.50;41.28
14242;BME280;7205;50.864;12.766;2023-04-21T12:26:59;97464.38;;;19.65;41.15
14242;BME280;7205;50.864;12.766;2023-04-21T12:29:26;97471.13;;;19.79;40.64
14242;BME280;7205;50.864;12.766;2023-04-21T12:31:53;97461.25;;;19.96;40.88
14242;BME280;7205;50.864;12.766;2023-04-21T12:34:19;97456.91;;;20.07;40.10
14242;BME280;7205;50.864;12.766;2023-04-21T12:36:46;97457.50;;;20.09;39.14
14242;BME280;7205;50.864;12.766;2023-04-21T12:39:14;97459.09;;;20.10;39.42
14242;BME280;7205;50.864;12.766;2023-04-21T12:41:43;97451.41;;;20.13;38.96
14242;BME280;7205;50.864;12.766;2023-04-21T12:44:10;97432.84;;;20.23;38.89
14242;BME280;7205;50.864;12.766;2023-04-21T12:46:36;97439.78;;;20.36;38.79
14242;BME280;7205;50.864;12.766;2023-04-21T12:49:04;97456.66;;;20.48;38.23
14242;BME280;7205;50.864;12.766;2023-04-21T12:51:32;97449.09;;;20.61;37.96
14242;BME280;7205;50.864;12.766;2023-04-21T12:53:59;97459.25;;;20.76;37.64
14242;BME280;7205;50.864;12.766;2023-04-21T12:56:27;97455.44;;;20.88;37.08
14242;BME280;7205;50.864;12.766;2023-04-21T12:58:53;97449.59;;;20.91;36.58
14242;BME280;7205;50.864;12.766;2023-04-21T13:01:21;97451.53;;;20.96;36.72
14242;BME280;7205;50.864;12.766;2023-04-21T13:03:48;97452.47;;;21.01;36.75
14242;BME280;7205;50.864;12.766;2023-04-21T13:06:16;97449.28;;;21.04;36.33